Time;durP1;ratioP1;P1;durP2;ratioP2;P2;SDS_P1;SDS_P2;PMS_P1;PMS_P2;Temp;Humidity;BMP_temperature;BMP_pressure;BME280_temperature;BME280_humidity;BME280_pressure;Samples;Min_cycle;Max_cycle;Signal;HPM_P1;HPM_P2
2023/12/03 00:00:28;;;;;;;34.40;18.55;;;2.10;99.90;;;;;;5072336;28;20032;-37
2023/12/03 00:02:54;;;;;;;36.65;20.27;;;2.10;99.90;;;;;;5059555;28;20067;-37
2023/12/03 00:05:20;;;;;;;37.30;20.83;;;2.10;99.90;;;;;;5069414;28;20061;-38
2023/12/03 00:07:46;;;;;;;36.40;18.90;;;2.10;99.90;;;;;;5062764;28;20017;-36
2023/12/03 00:10:11;;;;;;;40.33;21.38;;;2.10;99.90;;;;;;5065537;28;20024;-36
2023/12/03 00:12:38;;;;;;;37.83;21.77;;;2.10;99.90;;;;;;5065735;28;20025;-36
2023/12/03 00:15:05;;;;;;;37.55;19.25;;;2.10;99.90;;;;;;5063154;28;20502;-36
2023/12/03 00:17:31;;;;;;;34.55;18.98;;;2.00;99.90;;;;;;5066787;28;20595;-36
2023/12/03 00:19:56;;;;;;;30.77;17.60;;;2.10;99.90;;;;;;5061018;28;20029;-37
2023/12/03 00:22:22;;;;;;;34.03;18.65;;;2.10;99.90;;;;;;5069984;28;20029;-37
2023/12/03 00:24:48;;;;;;;31.95;17.98;;;2.10;99.90;;;;;;5059500;28;20477;-37
2023/12/03 00:27:14;;;;;;;32.90;18.13;;;2.10;99.90;;;;;;5052423;28;20041;-37
2023/12/03 00:29:39;;;;;;;35.35;19.05;;;2.10;99.90;;;;;;5059239;28;20037;-38
2023/12/03 00:32:05;;;;;;;39.33;21.25;;;2.10;99.90;;;;;;5074481;28;20021;-37
2023/12/03 00:34:31;;;;;;;35.67;17.88;;;2.10;99.90;;;;;;5063837;28;20463;-37
2023/12/03 00:36:56;;;;;;;32.30;17.98;;;2.10;99.90;;;;;;5075325;28;20024;-46
2023/12/03 00:39:22;;;;;;;34.35;17.42;;;2.10;99.90;;;;;;5063632;28;20047;-37
2023/12/03 00:41:48;;;;;;;33.25;16.33;;;2.10;99.90;;;;;;5075004;28;20036;-37
2023/12/03 00:44:13;;;;;;;31.75;17.05;;;2.10;99.90;;;;;;5063529;28;20830;-37
2023/12/03 00:46:39;;;;;;;33.50;17.10;;;2.10;99.90;;;;;;5072131;28;20020;-37
2023/12/03 00:49:05;;;;;;;35.28;17.48;;;2.10;99.90;;;;;;5066130;28;20081;-37
2023/12/03 00:51:30;;;;;;;35.58;18.20;;;2.10;99.90;;;;;;5069830;28;20019;-37
2023/12/03 00:53:56;;;;;;;36.25;17.77;;;2.10;99.90;;;;;;5068992;28;20464;-37
2023/12/03 00:56:21;;;;;;;37.05;18.02;;;2.10;99.90;;;;;;5079732;28;20039;-37
2023/12/03 00:58:47;;;;;;;37.63;18.38;;;2.10;99.90;;;;;;5083072;28;20131;-37
2023/12/03 01:01:13;;;;;;;41.20;19.73;;;2.10;99.90;;;;;;5082643;28;20635;-37
2023/12/03 01:03:38;;;;;;;38.95;19.45;;;2.10;99.90;;;;;;5083354;28;20118;-37
2023/12/03 01:06:04;;;;;;;41.88;19.95;;;2.00;99.90;;;;;;5082126;28;20073;-36
2023/12/03 01:08:29;;;;;;;41.17;20.55;;;2.00;99.90;;;;;;5083281;28;20471;-36
2023/12/03 01:10:55;;;;;;;40.30;19.15;;;2.00;99.90;;;;;;5082696;28;20085;-36
2023/12/03 01:13:21;;;;;;;40.35;19.00;;;2.10;99.90;;;;;;5082258;28;20095;-36
2023/12/03 01:15:48;;;;;;;41.67;20.65;;;2.00;99.90;;;;;;5083456;28;20886;-35
2023/12/03 01:18:13;;;;;;;46.38;21.20;;;2.10;99.90;;;;;;5082724;28;20020;-36
2023/12/03 01:20:39;;;;;;;37.28;18.60;;;2.00;99.90;;;;;;5082243;28;20808;-36
2023/12/03 01:23:05;;;;;;;44.22;19.75;;;2.00;99.90;;;;;;5082523;28;20087;-35
2023/12/03 01:25:30;;;;;;;46.75;18.83;;;2.00;99.90;;;;;;5082631;28;20075;-36
2023/12/03 01:27:56;;;;;;;37.72;16.77;;;2.00;99.90;;;;;;5081728;28;20431;-37
2023/12/03 01:30:25;;;;;;;36.20;16.10;;;2.00;99.90;;;;;;5083508;28;20111;-36
2023/12/03 01:32:50;;;;;;;42.28;17.55;;;2.00;99.90;;;;;;5082223;28;20023;-36
2023/12/03 01:35:17;;;;;;;37.25;18.05;;;2.00;99.90;;;;;;5082142;28;20032;-36
2023/12/03 01:37:42;;;;;;;39.05;17.20;;;2.10;99.90;;;;;;5082440;28;20023;-37
2023/12/03 01:40:08;;;;;;;30.20;16.77;;;2.00;99.90;;;;;;5082017;28;20058;-37
2023/12/03 01:42:34;;;;;;;43.67;19.15;;;2.00;99.90;;;;;;5081581;28;20082;-37
2023/12/03 01:45:00;;;;;;;45.95;21.08;;;2.10;99.90;;;;;;5082198;28;20147;-36
2023/12/03 01:47:26;;;;;;;40.78;19.48;;;2.10;99.90;;;;;;5082833;28;20024;-37
2023/12/03 01:49:52;;;;;;;39.38;16.83;;;2.10;99.90;;;;;;5081779;28;20024;-37
2023/12/03 01:52:18;;;;;;;33.67;17.67;;;2.10;99.90;;;;;;5082673;28;20097;-45
2023/12/03 01:54:44;;;;;;;33.47;16.42;;;2.10;99.90;;;;;;5081095;28;20134;-36
2023/12/03 01:57:11;;;;;;;32.20;15.10;;;2.20;99.90;;;;;;5082274;28;20031;-37
2023/12/03 01:59:37;;;;;;;33.92;15.57;;;2.20;99.90;;;;;;5082124;28;20290;-37
2023/12/03 02:02:03;;;;;;;37.03;15.57;;;2.20;99.90;;;;;;5081274;28;20487;-36
2023/12/03 02:04:29;;;;;;;39.20;16.25;;;2.20;99.90;;;;;;5082046;28;20734;-36
2023/12/03 02:06:55;;;;;;;30.80;14.55;;;2.30;99.90;;;;;;5081274;28;20028;-37
2023/12/03 02:09:21;;;;;;;31.55;16.25;;;2.30;99.90;;;;;;5081526;28;20024;-37
2023/12/03 02:11:47;;;;;;;33.97;15.65;;;2.30;99.90;;;;;;5082517;28;20024;-37
2023/12/03 02:14:13;;;;;;;25.30;13.25;;;2.30;99.90;;;;;;5082320;28;20023;-36
2023/12/03 02:16:47;;;;;;;33.00;13.60;;;2.30;99.90;;;;;;5081097;28;20026;-36
2023/12/03 02:19:15;;;;;;;30.17;14.57;;;2.40;99.90;;;;;;5081739;28;20016;-36
2023/12/03 02:21:41;;;;;;;29.13;13.82;;;2.40;99.90;;;;;;5063648;28;20546;-36
2023/12/03 02:24:07;;;;;;;33.47;14.32;;;2.40;99.90;;;;;;5080608;28;20047;-37
2023/12/03 02:26:33;;;;;;;30.58;14.52;;;2.40;99.90;;;;;;5081837;28;20020;-37
2023/12/03 02:28:58;;;;;;;27.25;14.77;;;2.40;99.90;;;;;;5080827;28;20109;-36
2023/12/03 02:31:25;;;;;;;30.33;15.13;;;2.50;99.90;;;;;;5081281;28;20038;-36
2023/12/03 02:34:13;;;;;;;30.10;14.43;;;2.50;99.90;;;;;;5080466;28;20471;-37
2023/12/03 02:36:38;;;;;;;30.45;14.10;;;2.50;99.90;;;;;;5079490;28;20265;-36
2023/12/03 02:39:05;;;;;;;31.02;15.00;;;2.50;99.90;;;;;;5081234;28;20837;-36
2023/12/03 02:41:31;;;;;;;33.10;15.82;;;2.50;99.90;;;;;;5077198;28;20036;-36
2023/12/03 02:43:57;;;;;;;38.22;17.58;;;2.50;99.90;;;;;;5079916;28;20044;-36
2023/12/03 02:46:23;;;;;;;31.65;16.15;;;2.50;99.90;;;;;;5080840;28;20081;-36
2023/12/03 02:48:49;;;;;;;38.38;17.13;;;2.50;99.90;;;;;;5042261;28;20036;-36
2023/12/03 02:51:14;;;;;;;38.03;17.75;;;2.50;99.90;;;;;;5077124;28;20103;-36
2023/12/03 02:53:40;;;;;;;33.90;16.58;;;2.50;99.90;;;;;;5081041;28;20037;-36
2023/12/03 02:56:06;;;;;;;34.55;16.85;;;2.50;99.90;;;;;;5080563;28;20055;-36
2023/12/03 02:58:33;;;;;;;31.45;15.57;;;2.50;99.90;;;;;;5080810;28;20035;-36
2023/12/03 03:00:59;;;;;;;27.83;14.35;;;2.60;99.90;;;;;;5080220;28;20497;-37
2023/12/03 03:03:27;;;;;;;27.80;13.88;;;2.60;99.90;;;;;;5081055;28;20131;-36
2023/12/03 03:05:53;;;;;;;28.85;13.57;;;2.60;99.90;;;;;;5079260;28;20023;-36
2023/12/03 03:08:18;;;;;;;29.35;15.43;;;2.60;99.90;;;;;;5080994;28;20028;-36
2023/12/03 03:10:44;;;;;;;31.33;14.95;;;2.70;99.90;;;;;;5080520;28;20027;-36
2023/12/03 03:13:09;;;;;;;26.23;13.52;;;2.70;99.90;;;;;;5079890;28;20032;-36
2023/12/03 03:15:35;;;;;;;24.58;12.85;;;2.70;99.90;;;;;;5079849;28;20035;-35
2023/12/03 03:18:01;;;;;;;26.25;13.82;;;2.70;99.90;;;;;;5080106;28;20028;-36
2023/12/03 03:20:27;;;;;;;26.23;13.75;;;2.70;99.90;;;;;;5080630;28;20032;-36
2023/12/03 03:22:53;;;;;;;25.27;13.15;;;2.80;99.90;;;;;;5076793;28;20050;-36
2023/12/03 03:25:19;;;;;;;25.73;13.98;;;2.70;99.90;;;;;;5081680;28;20135;-36
2023/12/03 03:27:44;;;;;;;29.27;15.32;;;2.80;99.90;;;;;;5079537;28;20081;-36
2023/12/03 03:30:10;;;;;;;31.30;15.65;;;2.70;99.90;;;;;;5079735;28;20027;-36
2023/12/03 03:32:36;;;;;;;30.30;16.08;;;2.70;99.90;;;;;;5080207;28;20066;-36
2023/12/03 03:35:03;;;;;;;26.95;14.82;;;2.80;99.90;;;;;;5080306;28;20138;-36
2023/12/03 03:37:29;;;;;;;29.15;16.20;;;2.80;99.90;;;;;;5080852;28;20663;-40
2023/12/03 03:39:54;;;;;;;31.65;16.17;;;2.80;99.90;;;;;;5079309;28;20067;-36
2023/12/03 03:42:20;;;;;;;30.02;17.35;;;2.80;99.90;;;;;;5079877;28;20032;-37
2023/12/03 03:44:46;;;;;;;29.40;17.23;;;2.80;99.90;;;;;;5080227;28;20127;-36
2023/12/03 03:47:13;;;;;;;29.88;17.40;;;2.80;99.90;;;;;;5078803;28;20016;-36
2023/12/03 03:49:39;;;;;;;29.95;17.08;;;2.80;99.90;;;;;;5080373;28;20036;-38
2023/12/03 03:52:05;;;;;;;27.65;16.13;;;2.80;99.90;;;;;;5080173;28;20031;-36
2023/12/03 03:54:30;;;;;;;27.30;15.63;;;2.90;99.90;;;;;;5079399;28;20032;-35
2023/12/03 03:56:56;;;;;;;30.63;17.02;;;2.80;99.90;;;;;;5079103;28;20027;-36
2023/12/03 03:59:23;;;;;;;28.80;17.38;;;2.80;99.90;;;;;;5080018;28;20557;-36
2023/12/03 04:01:48;;;;;;;26.42;16.92;;;2.90;99.90;;;;;;5079133;28;20032;-36
2023/12/03 04:04:14;;;;;;;30.83;17.45;;;2.90;99.90;;;;;;5079460;28;20917;-36
2023/12/03 04:06:41;;;;;;;25.63;16.35;;;2.90;99.90;;;;;;5080045;28;20028;-37
2023/12/03 04:09:07;;;;;;;27.50;16.50;;;2.90;99.90;;;;;;5078570;28;20028;-36
2023/12/03 04:11:44;;;;;;;28.52;17.67;;;2.90;99.90;;;;;;5079971;28;20027;-36
2023/12/03 04:14:18;;;;;;;24.60;15.30;;;2.90;99.90;;;;;;5078960;28;20122;-37
2023/12/03 04:16:44;;;;;;;24.60;15.27;;;2.90;99.90;;;;;;5078644;28;20387;-37
2023/12/03 04:19:11;;;;;;;27.67;17.00;;;2.90;99.90;;;;;;5079241;28;20847;-36
2023/12/03 04:21:36;;;;;;;25.98;16.00;;;2.90;99.90;;;;;;5060326;28;20032;-37
2023/12/03 04:24:03;;;;;;;25.02;15.73;;;2.90;99.90;;;;;;5072289;28;20032;-37
2023/12/03 04:26:28;;;;;;;27.50;17.08;;;3.00;99.90;;;;;;5094178;28;20036;-37
2023/12/03 04:28:56;;;;;;;26.15;16.45;;;2.90;99.90;;;;;;5087091;28;20073;-36
2023/12/03 04:31:25;;;;;;;26.63;17.27;;;2.90;99.90;;;;;;5079824;28;20785;-37
2023/12/03 04:33:52;;;;;;;23.98;16.13;;;2.90;99.90;;;;;;5079749;28;20095;-39
2023/12/03 04:36:19;;;;;;;23.92;15.70;;;2.90;99.90;;;;;;5079593;28;20673;-37
2023/12/03 04:38:45;;;;;;;21.33;14.80;;;2.90;99.90;;;;;;5079193;28;20781;-37
2023/12/03 04:41:11;;;;;;;24.60;15.52;;;2.90;99.90;;;;;;5078785;28;20054;-37
2023/12/03 04:43:37;;;;;;;23.42;14.63;;;2.90;99.90;;;;;;5078632;28;20024;-36
2023/12/03 04:46:06;;;;;;;22.70;15.10;;;2.90;99.90;;;;;;5078596;28;20080;-37
2023/12/03 04:48:34;;;;;;;23.90;14.57;;;2.90;99.90;;;;;;5079968;28;20020;-36
2023/12/03 04:51:00;;;;;;;21.98;15.00;;;2.80;99.90;;;;;;5078750;28;20085;-37
2023/12/03 04:53:26;;;;;;;22.65;15.05;;;2.90;99.90;;;;;;5079609;28;20085;-36
2023/12/03 04:55:51;;;;;;;20.55;14.05;;;2.90;99.90;;;;;;5074914;28;20036;-37
2023/12/03 04:58:17;;;;;;;21.00;13.70;;;2.90;99.90;;;;;;5059123;28;20086;-38
2023/12/03 05:00:42;;;;;;;20.75;13.18;;;2.90;99.90;;;;;;5071510;28;20146;-37
2023/12/03 05:03:08;;;;;;;20.98;14.40;;;2.90;99.90;;;;;;5058469;28;20067;-36
2023/12/03 05:05:34;;;;;;;20.88;14.18;;;2.90;99.90;;;;;;5069562;28;20043;-37
2023/12/03 05:07:59;;;;;;;23.27;14.95;;;2.90;99.90;;;;;;5059781;28;20374;-36
2023/12/03 05:10:25;;;;;;;22.77;13.88;;;2.90;99.90;;;;;;5067547;28;20031;-36
2023/12/03 05:12:50;;;;;;;22.42;14.43;;;2.90;99.90;;;;;;5062575;28;20024;-36
2023/12/03 05:15:16;;;;;;;21.85;14.20;;;2.90;99.90;;;;;;5065018;28;20032;-36
2023/12/03 05:17:42;;;;;;;25.10;14.65;;;2.90;99.90;;;;;;5068941;28;20024;-36
2023/12/03 05:20:08;;;;;;;22.52;14.35;;;2.80;99.90;;;;;;5064680;28;20111;-36
2023/12/03 05:22:33;;;;;;;21.52;14.30;;;2.80;99.90;;;;;;5072750;28;20032;-36
2023/12/03 05:24:59;;;;;;;25.63;15.30;;;2.80;99.90;;;;;;5063390;28;20489;-36
2023/12/03 05:27:25;;;;;;;24.33;15.32;;;2.80;99.90;;;;;;5073074;28;20902;-36
2023/12/03 05:29:50;;;;;;;25.48;15.70;;;2.70;99.90;;;;;;5063145;28;20024;-36
2023/12/03 05:32:16;;;;;;;20.67;14.43;;;2.70;99.90;;;;;;5073415;28;20056;-36
2023/12/03 05:34:45;;;;;;;24.05;13.77;;;2.70;99.90;;;;;;5061431;28;20105;-37
2023/12/03 05:37:11;;;;;;;23.05;14.02;;;2.70;99.90;;;;;;5068724;28;20051;-36
2023/12/03 05:39:40;;;;;;;21.20;13.63;;;2.60;99.90;;;;;;5082299;28;20035;-41
2023/12/03 05:42:06;;;;;;;19.88;12.95;;;2.50;99.90;;;;;;5067610;28;20040;-36
2023/12/03 05:44:32;;;;;;;20.38;12.95;;;2.40;99.90;;;;;;5082499;28;20061;-36
2023/12/03 05:46:59;;;;;;;16.30;10.43;;;2.40;99.90;;;;;;5069833;28;20869;-37
2023/12/03 05:49:25;;;;;;;21.10;12.95;;;2.30;99.90;;;;;;5081152;28;20118;-38
2023/12/03 05:51:50;;;;;;;19.85;12.60;;;2.20;99.90;;;;;;5072597;28;20424;-36
2023/12/03 05:54:16;;;;;;;19.52;12.18;;;2.20;99.90;;;;;;5078209;28;20101;-36
2023/12/03 05:56:44;;;;;;;21.85;12.25;;;2.20;99.90;;;;;;5075392;28;20460;-37
2023/12/03 05:59:15;;;;;;;20.73;12.27;;;2.10;99.90;;;;;;5076439;28;20394;-36
2023/12/03 06:01:41;;;;;;;23.85;13.00;;;2.10;99.90;;;;;;5075886;28;20031;-37
2023/12/03 06:04:07;;;;;;;19.67;12.68;;;2.10;99.90;;;;;;5071457;28;20034;-36
2023/12/03 06:06:36;;;;;;;21.38;13.85;;;2.10;99.90;;;;;;5063724;28;20044;-36
2023/12/03 06:09:05;;;;;;;20.98;12.80;;;2.10;99.90;;;;;;5068494;28;20025;-37
2023/12/03 06:11:32;;;;;;;23.33;14.50;;;2.10;99.90;;;;;;5062811;28;20828;-37
2023/12/03 06:13:58;;;;;;;23.65;12.98;;;2.10;99.90;;;;;;5071944;28;20040;-36
2023/12/03 06:16:24;;;;;;;22.60;14.05;;;2.20;99.90;;;;;;5060747;28;20027;-43
2023/12/03 06:18:50;;;;;;;20.20;13.13;;;2.20;99.90;;;;;;5071556;28;20025;-36
2023/12/03 06:21:16;;;;;;;19.83;13.35;;;2.20;99.90;;;;;;5060970;28;20024;-36
2023/12/03 06:23:41;;;;;;;18.25;11.38;;;2.20;99.90;;;;;;5071920;28;20035;-36
2023/12/03 06:26:08;;;;;;;21.92;13.13;;;2.20;99.90;;;;;;5061129;28;20035;-35
2023/12/03 06:28:33;;;;;;;20.38;12.00;;;2.10;99.90;;;;;;5072126;28;20031;-36
2023/12/03 06:31:00;;;;;;;21.38;12.18;;;2.10;99.90;;;;;;5060027;28;20501;-38
2023/12/03 06:33:25;;;;;;;20.25;13.43;;;2.20;99.90;;;;;;5070588;28;20890;-37
2023/12/03 06:35:53;;;;;;;21.25;12.95;;;2.20;99.90;;;;;;5062057;28;20028;-36
2023/12/03 06:38:18;;;;;;;22.20;14.45;;;2.10;99.90;;;;;;5068329;28;20028;-36
2023/12/03 06:40:45;;;;;;;22.27;13.98;;;2.10;99.90;;;;;;5065045;28;20032;-36
2023/12/03 06:43:10;;;;;;;23.67;13.38;;;2.00;99.90;;;;;;5064687;28;20016;-36
2023/12/03 06:45:37;;;;;;;24.83;14.50;;;2.00;99.90;;;;;;5067030;28;20055;-35
2023/12/03 06:48:03;;;;;;;23.88;14.07;;;1.90;99.90;;;;;;5063032;28;20029;-36
2023/12/03 06:50:29;;;;;;;22.05;12.73;;;1.80;99.90;;;;;;5069648;28;20628;-37
2023/12/03 06:52:54;;;;;;;22.55;13.88;;;1.80;99.90;;;;;;5060883;28;20033;-35
2023/12/03 06:55:21;;;;;;;26.33;15.02;;;1.70;99.90;;;;;;5079560;28;20850;-36
2023/12/03 06:57:47;;;;;;;22.98;13.02;;;1.70;99.90;;;;;;5078755;28;20032;-35
2023/12/03 07:00:16;;;;;;;22.60;12.95;;;1.70;99.90;;;;;;5079376;28;20090;-36
2023/12/03 07:02:42;;;;;;;20.58;13.02;;;1.60;99.90;;;;;;5080008;28;20553;-36
2023/12/03 07:05:09;;;;;;;22.08;13.02;;;1.60;99.90;;;;;;5079049;28;20109;-37
2023/12/03 07:07:35;;;;;;;23.17;13.77;;;1.50;99.90;;;;;;5080021;28;20498;-36
2023/12/03 07:10:00;;;;;;;24.55;14.88;;;1.50;99.90;;;;;;5079785;28;20122;-37
2023/12/03 07:12:26;;;;;;;25.02;14.60;;;1.50;99.90;;;;;;5080021;28;20027;-35
2023/12/03 07:14:52;;;;;;;25.77;15.70;;;1.50;99.90;;;;;;5079948;28;20035;-37
2023/12/03 07:17:17;;;;;;;22.08;12.98;;;1.40;99.90;;;;;;5080943;28;20024;-44
2023/12/03 07:19:49;;;;;;;22.08;12.95;;;1.40;99.90;;;;;;5079007;28;20379;-36
2023/12/03 07:22:14;;;;;;;24.42;13.88;;;1.30;99.90;;;;;;5080403;28;20030;-37
2023/12/03 07:24:41;;;;;;;26.30;14.30;;;1.30;99.90;;;;;;5079239;28;20032;-36
2023/12/03 07:27:07;;;;;;;27.98;15.52;;;1.30;99.90;;;;;;5079860;28;20078;-36
2023/12/03 07:29:33;;;;;;;25.13;13.90;;;1.20;99.90;;;;;;5079869;28;20739;-42
2023/12/03 07:32:00;;;;;;;27.90;13.73;;;1.20;99.90;;;;;;5079464;28;20032;-36
2023/12/03 07:34:26;;;;;;;25.35;14.45;;;1.20;99.90;;;;;;5079985;28;20040;-36
2023/12/03 07:36:52;;;;;;;23.42;13.65;;;1.20;99.90;;;;;;5080202;28;20055;-37
2023/12/03 07:39:24;;;;;;;24.10;13.18;;;1.20;99.90;;;;;;5079086;28;20083;-36
2023/12/03 07:41:53;;;;;;;28.50;15.73;;;1.10;99.90;;;;;;5079657;28;20107;-37
2023/12/03 07:44:21;;;;;;;31.13;16.38;;;1.10;99.90;;;;;;5078914;28;20122;-37
2023/12/03 07:46:47;;;;;;;31.58;15.82;;;1.10;99.90;;;;;;5078642;28;20024;-36
2023/12/03 07:49:13;;;;;;;26.60;15.60;;;1.10;99.90;;;;;;5080258;28;20031;-37
2023/12/03 07:51:41;;;;;;;30.75;15.35;;;1.10;99.90;;;;;;5079875;28;20756;-38
2023/12/03 07:54:07;;;;;;;26.63;15.20;;;1.10;99.90;;;;;;5079593;28;20115;-37
2023/12/03 07:56:39;;;;;;;26.40;14.68;;;1.10;99.90;;;;;;5080055;28;20070;-37
2023/12/03 07:59:05;;;;;;;28.45;15.30;;;1.10;99.90;;;;;;5079855;28;20032;-37
2023/12/03 08:01:31;;;;;;;25.42;14.50;;;1.10;99.90;;;;;;5079349;28;20052;-36
2023/12/03 08:03:58;;;;;;;27.75;15.20;;;1.10;99.90;;;;;;5079330;28;20139;-36
2023/12/03 08:06:24;;;;;;;27.05;15.43;;;1.10;99.90;;;;;;5079808;28;20024;-36
2023/12/03 08:08:51;;;;;;;26.98;15.15;;;1.00;99.90;;;;;;5078313;28;20744;-36
2023/12/03 08:11:17;;;;;;;26.85;15.25;;;1.00;99.90;;;;;;5079583;28;20641;-36
2023/12/03 08:13:42;;;;;;;30.65;16.35;;;1.00;99.90;;;;;;5079701;28;20024;-36
2023/12/03 08:16:09;;;;;;;30.35;17.40;;;1.00;99.90;;;;;;5078911;28;20401;-37
2023/12/03 08:18:34;;;;;;;28.23;16.10;;;1.00;99.90;;;;;;5080128;28;20052;-36
2023/12/03 08:21:00;;;;;;;29.20;15.27;;;1.10;99.90;;;;;;5077622;28;20108;-36
2023/12/03 08:23:26;;;;;;;28.30;14.65;;;1.00;99.90;;;;;;5079142;28;20070;-37
2023/12/03 08:25:52;;;;;;;27.98;15.00;;;1.00;99.90;;;;;;5078200;28;20028;-37
2023/12/03 08:28:18;;;;;;;28.48;13.82;;;1.00;99.90;;;;;;5079092;28;20893;-38
2023/12/03 08:30:44;;;;;;;24.73;14.00;;;1.10;99.90;;;;;;5080548;28;20036;-37
2023/12/03 08:33:10;;;;;;;28.65;15.38;;;1.00;99.90;;;;;;5079746;28;20131;-36
2023/12/03 08:35:38;;;;;;;30.90;15.68;;;1.10;99.90;;;;;;5079060;28;20059;-35
2023/12/03 08:38:03;;;;;;;26.20;14.63;;;1.10;99.90;;;;;;5078409;28;20035;-35
2023/12/03 08:40:29;;;;;;;30.40;15.25;;;1.10;99.90;;;;;;5079246;28;20028;-37
2023/12/03 08:43:07;;;;;;;26.98;14.90;;;1.10;99.90;;;;;;5078892;28;20499;-38
2023/12/03 08:45:33;;;;;;;29.33;14.52;;;1.10;99.90;;;;;;5059005;28;20074;-36
2023/12/03 08:48:00;;;;;;;28.85;17.20;;;1.20;99.90;;;;;;5073898;28;20024;-37
2023/12/03 08:50:28;;;;;;;30.70;16.90;;;1.20;99.90;;;;;;5079522;28;20074;-36
2023/12/03 08:52:54;;;;;;;32.03;15.68;;;1.20;99.90;;;;;;5082601;28;20027;-37
2023/12/03 08:55:20;;;;;;;31.20;17.33;;;1.20;99.90;;;;;;5083609;28;20044;-37
2023/12/03 08:57:45;;;;;;;30.05;16.08;;;1.20;99.90;;;;;;5082245;28;20081;-36
2023/12/03 09:00:13;;;;;;;28.20;15.48;;;1.30;99.90;;;;;;5082766;28;20050;-37
2023/12/03 09:02:39;;;;;;;25.42;14.27;;;1.30;99.90;;;;;;5082861;28;20164;-40
2023/12/03 09:05:05;;;;;;;28.40;15.00;;;1.30;99.90;;;;;;5081756;28;20054;-37
2023/12/03 09:07:31;;;;;;;27.13;15.70;;;1.40;99.90;;;;;;5082755;28;20828;-36
2023/12/03 09:09:57;;;;;;;22.33;12.85;;;1.40;99.90;;;;;;5081974;28;20026;-37
2023/12/03 09:12:23;;;;;;;22.73;12.55;;;1.50;99.90;;;;;;5082013;28;20028;-36
2023/12/03 09:14:48;;;;;;;23.83;13.25;;;1.50;99.90;;;;;;5081815;28;20471;-36
2023/12/03 09:17:14;;;;;;;22.42;13.30;;;1.50;99.90;;;;;;5080485;28;20032;-36
2023/12/03 09:19:39;;;;;;;24.95;13.00;;;1.60;99.90;;;;;;5080391;28;20035;-36
2023/12/03 09:22:05;;;;;;;23.65;13.45;;;1.60;99.90;;;;;;5081119;28;20028;-36
2023/12/03 09:24:31;;;;;;;25.83;13.95;;;1.70;99.90;;;;;;5080079;28;20075;-37
2023/12/03 09:26:56;;;;;;;19.02;11.77;;;1.60;99.90;;;;;;5080729;28;20028;-37
2023/12/03 09:29:22;;;;;;;23.83;13.30;;;1.70;99.90;;;;;;5081781;28;20028;-35
2023/12/03 09:31:48;;;;;;;26.70;13.68;;;1.70;99.90;;;;;;5082031;28;20046;-36
2023/12/03 09:34:13;;;;;;;28.63;14.63;;;1.70;99.90;;;;;;5082730;28;20379;-37
2023/12/03 09:36:39;;;;;;;26.80;15.13;;;1.70;99.90;;;;;;5083433;28;20036;-37
2023/12/03 09:39:04;;;;;;;25.63;14.45;;;1.70;99.90;;;;;;5081905;28;20085;-35
2023/12/03 09:41:33;;;;;;;21.50;12.75;;;1.80;99.90;;;;;;5082459;28;20028;-37
2023/12/03 09:44:11;;;;;;;22.08;12.32;;;1.80;99.90;;;;;;5081577;28;20038;-36
2023/12/03 09:46:38;;;;;;;22.63;12.55;;;1.80;99.90;;;;;;5082121;28;20354;-37
2023/12/03 09:49:11;;;;;;;21.75;12.95;;;1.90;99.90;;;;;;5081978;28;20031;-35
2023/12/03 09:51:41;;;;;;;26.63;13.23;;;2.00;99.90;;;;;;5081849;28;20031;-36
2023/12/03 09:54:11;;;;;;;25.48;14.23;;;2.00;99.90;;;;;;5080160;28;20051;-36
2023/12/03 09:56:40;;;;;;;25.52;14.38;;;2.10;99.90;;;;;;5071840;28;20092;-37
2023/12/03 09:59:09;;;;;;;26.38;15.40;;;2.10;99.90;;;;;;5044344;28;20024;-37
2023/12/03 10:01:38;;;;;;;24.15;13.70;;;2.10;99.90;;;;;;5073118;28;20085;-38
2023/12/03 10:04:04;;;;;;;22.88;12.95;;;2.10;99.90;;;;;;5062176;28;20066;-38
2023/12/03 10:06:34;;;;;;;24.80;13.75;;;2.10;99.90;;;;;;5073021;28;20036;-37
2023/12/03 10:09:00;;;;;;;23.92;13.23;;;2.20;99.90;;;;;;5061523;28;20043;-37
2023/12/03 10:11:28;;;;;;;25.40;14.30;;;2.20;99.90;;;;;;5068482;28;20459;-38
2023/12/03 10:13:56;;;;;;;21.33;12.93;;;2.20;99.90;;;;;;5081090;28;20034;-38
2023/12/03 10:16:22;;;;;;;29.13;14.18;;;2.20;99.90;;;;;;5068636;28;20083;-37
2023/12/03 10:18:50;;;;;;;21.67;12.10;;;2.20;99.90;;;;;;5082036;28;20024;-38
2023/12/03 10:21:17;;;;;;;23.15;13.55;;;2.20;99.90;;;;;;5068217;28;20768;-37
2023/12/03 10:23:56;;;;;;;27.08;15.57;;;2.30;99.90;;;;;;5081287;28;20497;-38
2023/12/03 10:26:22;;;;;;;26.48;13.82;;;2.30;99.90;;;;;;5080346;28;20020;-37
2023/12/03 10:28:47;;;;;;;25.77;14.73;;;2.30;99.90;;;;;;5060716;28;20028;-38
2023/12/03 10:31:14;;;;;;;22.83;12.57;;;2.30;99.90;;;;;;5070616;28;20098;-41
2023/12/03 10:33:43;;;;;;;24.95;12.38;;;2.30;99.90;;;;;;5064686;28;20040;-37
2023/12/03 10:36:09;;;;;;;22.92;12.68;;;2.40;99.90;;;;;;5067386;28;20113;-37
2023/12/03 10:38:39;;;;;;;22.48;12.93;;;2.40;99.90;;;;;;5067382;28;20040;-38
2023/12/03 10:41:10;;;;;;;21.83;11.77;;;2.50;99.90;;;;;;5066504;28;20035;-39
2023/12/03 10:43:39;;;;;;;20.38;12.20;;;2.50;99.90;;;;;;5067727;28;20032;-38
2023/12/03 10:46:14;;;;;;;19.90;10.95;;;2.50;99.90;;;;;;5064951;28;20028;-37
2023/12/03 10:48:40;;;;;;;19.38;11.70;;;2.50;99.90;;;;;;5068470;28;20017;-38
2023/12/03 10:51:08;;;;;;;23.33;12.18;;;2.60;99.90;;;;;;5063328;28;20082;-38
2023/12/03 10:53:34;;;;;;;18.13;10.75;;;2.60;99.90;;;;;;5071719;28;20467;-38
2023/12/03 10:56:05;;;;;;;20.35;11.80;;;2.60;99.90;;;;;;5072605;28;20105;-37
2023/12/03 10:58:33;;;;;;;19.55;11.52;;;2.60;99.90;;;;;;5080932;28;20024;-38
2023/12/03 11:01:22;;;;;;;19.00;11.25;;;2.60;99.90;;;;;;5080631;28;20012;-38
2023/12/03 11:04:16;;;;;;;20.73;11.27;;;2.60;99.90;;;;;;5068913;28;20062;-36
2023/12/03 11:06:43;;;;;;;20.60;12.07;;;2.70;99.90;;;;;;5080644;28;20116;-38
2023/12/03 11:09:09;;;;;;;20.88;11.73;;;2.70;99.90;;;;;;5080006;28;20089;-38
2023/12/03 11:11:37;;;;;;;18.75;10.90;;;2.70;99.90;;;;;;5079948;28;20043;-38
2023/12/03 11:14:03;;;;;;;21.45;12.13;;;2.70;99.90;;;;;;5080307;28;20032;-39
2023/12/03 11:17:06;;;;;;;20.90;11.48;;;2.70;99.90;;;;;;5080461;28;20039;-37
2023/12/03 11:19:35;;;;;;;22.77;12.73;;;2.70;99.90;;;;;;5055245;28;20494;-39
2023/12/03 11:22:44;;;;;;;18.00;10.75;;;2.70;99.90;;;;;;5078896;28;20056;-37
2023/12/03 11:25:17;;;;;;;18.00;10.13;;;2.80;99.90;;;;;;5039554;28;20183;-38
2023/12/03 11:27:43;;;;;;;;;;;2.80;99.90;;;;;;5079114;28;20051;-37
2023/12/03 11:30:10;;;;;;;17.85;9.55;;;2.80;99.90;;;;;;5079112;28;20109;-38
2023/12/03 11:32:36;;;;;;;14.80;8.73;;;2.80;99.90;;;;;;5078437;28;20020;-40
2023/12/03 11:35:05;;;;;;;15.38;9.45;;;2.80;99.90;;;;;;5078688;28;20837;-39
2023/12/03 11:37:31;;;;;;;14.60;9.02;;;2.90;99.90;;;;;;5079448;28;20028;-38
2023/12/03 11:40:07;;;;;;;16.27;9.50;;;2.90;99.90;;;;;;5079589;28;20683;-39
2023/12/03 11:42:32;;;;;;;18.27;10.48;;;2.90;99.90;;;;;;5080745;28;20107;-38
2023/12/03 11:45:22;;;;;;;17.08;9.82;;;3.00;99.90;;;;;;5078923;28;20279;-38
2023/12/03 11:48:05;;;;;;;15.00;9.30;;;3.10;99.90;;;;;;5079352;28;20016;-37
2023/12/03 11:50:33;;;;;;;18.35;10.15;;;3.10;99.90;;;;;;5070863;28;20024;-39
2023/12/03 11:52:59;;;;;;;17.45;10.57;;;3.20;99.90;;;;;;5078386;28;20077;-38
2023/12/03 11:55:32;;;;;;;15.85;10.63;;;3.30;99.90;;;;;;5080113;28;20048;-36
2023/12/03 11:57:58;;;;;;;17.60;10.52;;;3.30;99.90;;;;;;5077694;28;20063;-38
2023/12/03 12:00:24;;;;;;;16.60;10.43;;;3.30;99.90;;;;;;5067926;28;20143;-37
2023/12/03 12:02:51;;;;;;;15.40;9.95;;;3.40;99.90;;;;;;5079453;28;20064;-38
2023/12/03 12:05:18;;;;;;;17.23;10.48;;;3.40;99.90;;;;;;5067846;28;20182;-38
2023/12/03 12:07:55;;;;;;;15.88;9.68;;;3.50;99.90;;;;;;5079093;28;20028;-38
2023/12/03 12:10:21;;;;;;;15.95;9.18;;;3.50;99.90;;;;;;5071741;28;20255;-38
2023/12/03 12:12:47;;;;;;;17.23;10.93;;;3.50;99.90;;;;;;5060051;28;20487;-39
2023/12/03 12:15:12;;;;;;;15.30;9.60;;;3.50;99.90;;;;;;5071852;28;20055;-38
2023/12/03 12:17:38;;;;;;;17.55;10.38;;;3.50;99.90;;;;;;5059353;28;20025;-38
2023/12/03 12:20:04;;;;;;;16.63;10.43;;;3.50;99.90;;;;;;5069592;28;20078;-39
2023/12/03 12:22:30;;;;;;;16.88;10.32;;;3.50;99.90;;;;;;5061161;28;20029;-36
2023/12/03 12:24:55;;;;;;;21.75;12.95;;;3.50;99.90;;;;;;5067456;28;20664;-37
2023/12/03 12:27:21;;;;;;;18.27;11.02;;;3.50;99.90;;;;;;5066035;28;20045;-37
2023/12/03 12:29:47;;;;;;;18.38;10.93;;;3.60;99.90;;;;;;5069010;28;20142;-38
2023/12/03 12:32:12;;;;;;;19.42;11.82;;;3.60;99.90;;;;;;5070610;28;20027;-37
2023/12/03 12:34:38;;;;;;;17.88;11.00;;;3.70;99.90;;;;;;5066219;28;20128;-38
2023/12/03 12:37:05;;;;;;;16.00;9.90;;;3.70;99.90;;;;;;5073011;28;20064;-47